createdAt,value
2023-04-19T00:00:02.603Z,102437.84
2023-04-19T00:02:31.979Z,102456.28
2023-04-19T00:05:00.831Z,102454.31
2023-04-19T00:07:29.462Z,102458.28
2023-04-19T00:09:58.384Z,102456.69
2023-04-19T00:12:28.570Z,102461.97
2023-04-19T00:14:59.283Z,102468.22
2023-04-19T00:17:28.115Z,102462.16
2023-04-19T00:19:57.111Z,102457.84
2023-04-19T00:22:25.539Z,102421.28
2023-04-19T00:24:54.156Z,102448.44
2023-04-19T00:27:22.731Z,102447.03
2023-04-19T00:29:52.778Z,102441.72
2023-04-19T00:32:21.294Z,102439.28
2023-04-19T00:34:50.588Z,102442.97
2023-04-19T00:37:19.116Z,102440.19
2023-04-19T00:39:47.837Z,102429.06
2023-04-19T00:42:16.271Z,102426.50
2023-04-19T00:44:45.187Z,102428.47
2023-04-19T00:47:15.981Z,102428.47
2023-04-19T00:49:44.988Z,102433.13
2023-04-19T00:52:13.654Z,102428.84
2023-04-19T00:54:45.237Z,102428.13
2023-04-19T00:57:14.124Z,102428.16
2023-04-19T00:59:43.433Z,102429.06
2023-04-19T01:02:11.986Z,102431.13
2023-04-19T01:04:42.747Z,102421.38
2023-04-19T01:07:11.373Z,102412.72
2023-04-19T01:09:42.375Z,102426.97
2023-04-19T01:12:10.762Z,102425.00
2023-04-19T01:14:39.468Z,102425.84
2023-04-19T01:17:09.423Z,102429.44
2023-04-19T01:19:40.174Z,102428.84
2023-04-19T01:22:11.512Z,102432.59
2023-04-19T01:24:42.770Z,102438.75
2023-04-19T01:27:11.527Z,102440.63
2023-04-19T01:29:39.850Z,102440.81
2023-04-19T01:32:08.397Z,102445.97
2023-04-19T01:34:36.912Z,102444.22
2023-04-19T01:37:05.362Z,102445.47
2023-04-19T01:39:34.150Z,102440.06
2023-04-19T01:42:04.610Z,102441.00
2023-04-19T01:44:33.105Z,102437.50
2023-04-19T01:47:01.726Z,102426.25
2023-04-19T01:49:30.203Z,102424.66
2023-04-19T01:51:58.811Z,102432.84
2023-04-19T01:54:27.588Z,102430.09
2023-04-19T01:56:56.279Z,102430.28
2023-04-19T01:59:26.386Z,102426.13
2023-04-19T02:01:55.929Z,102427.00
2023-04-19T02:04:24.675Z,102414.00
2023-04-19T02:06:53.020Z,102418.25
2023-04-19T02:09:21.636Z,102419.13
2023-04-19T02:11:50.281Z,102425.31
2023-04-19T02:14:18.885Z,102421.88
2023-04-19T02:16:50.368Z,102425.47
2023-04-19T02:19:19.169Z,102414.94
2023-04-19T02:21:47.602Z,102417.94
2023-04-19T02:24:16.279Z,102409.25
2023-04-19T02:26:44.956Z,102400.34
2023-04-19T02:29:13.605Z,102389.91
2023-04-19T02:31:42.168Z,102391.72
2023-04-19T02:34:12.426Z,102396.13
2023-04-19T02:36:41.106Z,102399.63
2023-04-19T02:39:09.952Z,102393.50
2023-04-19T02:41:39.912Z,102401.47
2023-04-19T02:44:08.844Z,102392.91
2023-04-19T02:46:37.420Z,102397.31
2023-04-19T02:49:06.396Z,102393.00
2023-04-19T02:51:37.730Z,102381.81
2023-04-19T02:54:08.260Z,102380.03
2023-04-19T02:56:37.857Z,102379.25
2023-04-19T02:59:07.076Z,102360.94
2023-04-19T03:01:35.530Z,102362.72
2023-04-19T03:04:04.158Z,102354.94
2023-04-19T03:06:33.008Z,102357.56
2023-04-19T03:09:03.080Z,102352.34
2023-04-19T03:11:31.723Z,102357.72
2023-04-19T03:14:00.907Z,102362.06
2023-04-19T03:16:31.059Z,102370.09
2023-04-19T03:18:59.512Z,102371.91
2023-04-19T03:21:29.290Z,102372.75
2023-04-19T03:23:58.116Z,102371.19
2023-04-19T03:26:28.164Z,102370.28
2023-04-19T03:29:02.836Z,102353.63
2023-04-19T03:31:31.319Z,102337.88
2023-04-19T03:33:59.853Z,102337.03
2023-04-19T03:36:28.402Z,102360.84
2023-04-19T03:38:56.758Z,102365.19
2023-04-19T03:41:28.065Z,102357.31
2023-04-19T03:43:57.854Z,102353.81
2023-04-19T03:46:26.370Z,102359.84
2023-04-19T03:48:55.415Z,102358.88
2023-04-19T03:51:23.844Z,102359.78
2023-04-19T03:53:52.279Z,102345.00
2023-04-19T03:56:21.960Z,102341.50
2023-04-19T03:58:54.308Z,102339.81
2023-04-19T04:01:24.786Z,102334.56
2023-04-19T04:03:53.836Z,102337.28
2023-04-19T04:06:22.432Z,102358.22
2023-04-19T04:08:50.688Z,102367.00
2023-04-19T04:11:19.327Z,102374.88
2023-04-19T04:13:49.148Z,102377.34
2023-04-19T04:16:19.157Z,102380.72
2023-04-19T04:18:47.660Z,102383.44
2023-04-19T04:21:16.020Z,102374.53
2023-04-19T04:23:44.351Z,102375.34
2023-04-19T04:26:14.381Z,102376.03
2023-04-19T04:28:43.033Z,102374.88
2023-04-19T04:31:13.109Z,102373.91
2023-04-19T04:33:43.201Z,102380.94
2023-04-19T04:36:12.352Z,102385.00
2023-04-19T04:38:41.997Z,102386.66
2023-04-19T04:41:10.901Z,102393.66
2023-04-19T04:43:40.208Z,102393.56
2023-04-19T04:46:10.400Z,102390.94
2023-04-19T04:48:39.039Z,102395.59
2023-04-19T04:51:09.213Z,102380.50
2023-04-19T04:53:38.917Z,102384.19
2023-04-19T04:56:09.247Z,102379.81
2023-04-19T04:58:37.968Z,102368.41
2023-04-19T05:01:08.168Z,102364.03
2023-04-19T05:03:36.867Z,102358.88
2023-04-19T05:06:05.735Z,102354.53
2023-04-19T05:08:35.835Z,102345.81
2023-04-19T05:11:05.355Z,102349.28
2023-04-19T05:13:34.116Z,102339.97
2023-04-19T05:16:02.909Z,102346.84
2023-04-19T05:18:32.045Z,102356.19
2023-04-19T05:21:03.138Z,102359.44
2023-04-19T05:23:31.819Z,102372.47
2023-04-19T05:26:01.645Z,102372.47
2023-04-19T05:28:30.072Z,102376.00
2023-04-19T05:30:58.677Z,102383.91
2023-04-19T05:33:27.621Z,102385.50
2023-04-19T05:35:58.805Z,102395.41
2023-04-19T05:38:27.422Z,102399.59
2023-04-19T05:40:56.027Z,102395.19
2023-04-19T05:43:26.052Z,102389.91
2023-04-19T05:45:54.654Z,102389.84
2023-04-19T05:48:25.943Z,102381.94
2023-04-19T05:50:56.597Z,102377.63
2023-04-19T05:53:25.846Z,102362.44
2023-04-19T05:55:54.178Z,102368.13
2023-04-19T05:58:23.641Z,102368.13
2023-04-19T06:00:54.675Z,102359.31
2023-04-19T06:03:23.308Z,102363.53
2023-04-19T06:05:52.015Z,102365.25
2023-04-19T06:08:20.522Z,102369.53
2023-04-19T06:10:54.443Z,102368.31
2023-04-19T06:13:25.213Z,102383.19
2023-04-19T06:15:55.334Z,102374.16
2023-04-19T06:18:23.645Z,102374.50
2023-04-19T06:20:52.514Z,102368.56
2023-04-19T06:23:21.045Z,102370.28
2023-04-19T06:25:49.998Z,102372.59
2023-04-19T06:28:18.343Z,102358.66
2023-04-19T06:30:47.128Z,102371.81
2023-04-19T06:33:17.280Z,102357.88
2023-04-19T06:35:45.699Z,102359.44
2023-04-19T06:38:13.991Z,102353.28
2023-04-19T06:40:42.556Z,102355.94
2023-04-19T06:43:10.909Z,102359.31
2023-04-19T06:45:39.322Z,102358.28
2023-04-19T06:48:08.949Z,102362.88
2023-04-19T06:50:39.041Z,102365.41
2023-04-19T06:53:07.528Z,102352.06
2023-04-19T06:55:36.396Z,102363.56
2023-04-19T06:58:07.979Z,102358.69
2023-04-19T07:00:36.481Z,102355.94
2023-04-19T07:03:05.208Z,102363.91
2023-04-19T07:05:34.293Z,102364.69
2023-04-19T07:08:04.790Z,102359.16
2023-04-19T07:10:33.534Z,102363.91
2023-04-19T07:13:01.856Z,102356.03
2023-04-19T07:15:30.514Z,102357.53
2023-04-19T07:17:59.323Z,102361.63
2023-04-19T07:20:27.983Z,102368.97
2023-04-19T07:22:56.441Z,102363.75
2023-04-19T07:25:26.825Z,102367.06
2023-04-19T07:27:55.650Z,102360.81
2023-04-19T07:30:24.975Z,102362.66
2023-04-19T07:32:53.840Z,102366.38
2023-04-19T07:35:22.480Z,102367.06
2023-04-19T07:37:51.372Z,102357.09
2023-04-19T07:40:20.430Z,102361.22
2023-04-19T07:42:50.664Z,102345.81
2023-04-19T07:45:19.338Z,102356.06
2023-04-19T07:47:47.883Z,102349.94
2023-04-19T07:50:17.076Z,102336.94
2023-04-19T07:52:45.667Z,102358.94
2023-04-19T07:55:14.276Z,102351.09
2023-04-19T07:57:46.868Z,102348.94
2023-04-19T08:00:18.362Z,102351.97
2023-04-19T08:02:47.017Z,102355.13
2023-04-19T08:05:17.692Z,102355.97
2023-04-19T08:07:47.040Z,102359.53
2023-04-19T08:10:17.091Z,102353.22
2023-04-19T08:12:57.294Z,102357.38
2023-04-19T08:18:06.288Z,102362.19
2023-04-19T08:20:35.570Z,102363.31
2023-04-19T08:23:18.162Z,102347.88
2023-04-19T08:25:51.447Z,102355.84
2023-04-19T08:28:20.397Z,102366.66
2023-04-19T08:30:50.574Z,102376.28
2023-04-19T08:33:19.394Z,102373.66
2023-04-19T08:35:47.639Z,102375.94
2023-04-19T08:38:16.277Z,102367.56
2023-04-19T08:40:48.452Z,102372.34
2023-04-19T08:43:19.257Z,102372.00
2023-04-19T08:45:50.738Z,102379.97
2023-04-19T08:48:19.972Z,102371.75
2023-04-19T08:51:04.067Z,102368.63
2023-04-19T08:53:35.941Z,102379.16
2023-04-19T08:56:17.473Z,102378.31
2023-04-19T08:59:03.809Z,102379.97
2023-04-19T09:01:40.451Z,102369.22
2023-04-19T09:04:34.982Z,102377.22
2023-04-19T09:06:58.624Z,102378.75
2023-04-19T09:09:37.050Z,102375.72
2023-04-19T09:12:19.440Z,102376.53
2023-04-19T09:17:21.651Z,102372.44
2023-04-19T09:19:51.819Z,102377.06
2023-04-19T09:22:20.794Z,102386.44
2023-04-19T09:27:31.886Z,102378.63
2023-04-19T09:30:02.441Z,102376.28
2023-04-19T09:32:48.637Z,102368.44
2023-04-19T09:35:17.687Z,102383.91
2023-04-19T09:40:31.636Z,102371.81
2023-04-19T09:43:14.953Z,102371.72
2023-04-19T09:45:49.614Z,102376.66
2023-04-19T09:48:20.036Z,102376.66
2023-04-19T09:51:01.911Z,102373.47
2023-04-19T09:53:35.514Z,102373.19
2023-04-19T09:56:06.554Z,102365.03
2023-04-19T09:58:49.937Z,102368.88
2023-04-19T10:01:23.222Z,102359.97
2023-04-19T10:03:55.899Z,102365.38
2023-04-19T10:08:57.173Z,102366.41
2023-04-19T10:11:30.695Z,102371.09
2023-04-19T10:14:03.345Z,102366.94
2023-04-19T10:16:33.845Z,102375.81
2023-04-19T10:19:07.186Z,102372.78
2023-04-19T10:21:38.471Z,102378.00
2023-04-19T10:24:08.790Z,102376.88
2023-04-19T10:27:11.531Z,102376.28
2023-04-19T10:29:59.720Z,102373.81
2023-04-19T10:32:32.417Z,102379.34
2023-04-19T10:35:10.146Z,102386.06
2023-04-19T10:37:42.848Z,102382.28
2023-04-19T10:40:13.615Z,102381.94
2023-04-19T10:43:16.586Z,102369.69
2023-04-19T10:45:44.981Z,102376.97
2023-04-19T10:48:39.635Z,102371.50
2023-04-19T10:51:16.164Z,102373.16
2023-04-19T10:53:49.397Z,102379.66
2023-04-19T10:56:19.222Z,102368.22
2023-04-19T10:59:24.373Z,102364.75
2023-04-19T11:01:55.830Z,102369.69
2023-04-19T11:04:46.837Z,102361.34
2023-04-19T11:07:18.662Z,102378.88
2023-04-19T11:09:48.559Z,102367.31
2023-04-19T11:12:18.746Z,102366.19
2023-04-19T11:14:49.299Z,102373.22
2023-04-19T11:17:19.639Z,102370.88
2023-04-19T11:19:56.498Z,102371.22
2023-04-19T11:22:32.827Z,102362.03
2023-04-19T11:25:08.259Z,102371.81
2023-04-19T11:27:37.600Z,102362.66
2023-04-19T11:30:08.069Z,102365.88
2023-04-19T11:32:37.342Z,102362.94
2023-04-19T11:35:07.998Z,102365.16
2023-04-19T11:37:39.289Z,102356.03
2023-04-19T11:40:10.053Z,102352.09
2023-04-19T11:42:39.244Z,102356.75
2023-04-19T11:45:18.719Z,102350.44
2023-04-19T11:47:55.216Z,102351.38
2023-04-19T11:50:35.124Z,102354.25
2023-04-19T11:53:14.735Z,102361.09
2023-04-19T11:55:48.310Z,102357.72
2023-04-19T11:58:32.198Z,102355.00
2023-04-19T12:01:07.793Z,102358.38
2023-04-19T12:03:37.396Z,102353.16
2023-04-19T12:06:09.484Z,102360.69
2023-04-19T12:08:40.859Z,102358.28
2023-04-19T12:11:09.970Z,102363.41
2023-04-19T12:13:40.832Z,102355.09
2023-04-19T12:16:10.252Z,102352.31
2023-04-19T12:18:50.520Z,102345.75
2023-04-19T12:21:29.510Z,102340.00
2023-04-19T12:24:01.470Z,102339.50
2023-04-19T12:26:31.623Z,102344.44
2023-04-19T12:29:02.771Z,102332.97
2023-04-19T12:31:33.752Z,102331.19
2023-04-19T12:34:02.206Z,102318.44
2023-04-19T12:36:30.807Z,102315.72
2023-04-19T12:39:00.917Z,102313.47
2023-04-19T12:41:29.576Z,102312.19
2023-04-19T12:43:57.986Z,102303.06
2023-04-19T12:46:27.141Z,102313.28
2023-04-19T12:48:55.965Z,102303.88
2023-04-19T12:51:24.536Z,102300.44
2023-04-19T12:53:54.391Z,102303.25
2023-04-19T12:56:24.731Z,102299.94
2023-04-19T12:58:53.046Z,102296.56
2023-04-19T13:01:22.210Z,102299.41
2023-04-19T13:03:51.223Z,102291.88
2023-04-19T13:06:19.787Z,102293.38
2023-04-19T13:08:48.372Z,102296.88
2023-04-19T13:11:23.497Z,102295.97
2023-04-19T13:13:54.220Z,102301.84
2023-04-19T13:16:23.346Z,102290.50
2023-04-19T13:18:52.947Z,102297.69
2023-04-19T13:21:21.268Z,102290.97
2023-04-19T13:23:49.776Z,102281.59
2023-04-19T13:26:18.483Z,102262.88
2023-04-19T13:28:46.833Z,102261.53
2023-04-19T13:31:17.414Z,102258.22
2023-04-19T13:33:46.531Z,102270.63
2023-04-19T13:36:15.143Z,102268.25
2023-04-19T13:38:43.928Z,102262.06
2023-04-19T13:41:12.361Z,102258.28
2023-04-19T13:43:41.122Z,102272.28
2023-04-19T13:46:09.730Z,102282.53
2023-04-19T13:48:39.950Z,102275.19
2023-04-19T13:51:09.353Z,102272.25
2023-04-19T13:53:37.734Z,102266.56
2023-04-19T13:56:09.631Z,102249.31
2023-04-19T13:58:38.480Z,102248.03
2023-04-19T14:01:07.045Z,102246.59
2023-04-19T14:03:35.736Z,102240.19
2023-04-19T14:06:06.771Z,102237.19
2023-04-19T14:08:35.352Z,102232.81
2023-04-19T14:11:03.703Z,102237.31
2023-04-19T14:13:32.431Z,102232.38
2023-04-19T14:16:01.198Z,102238.13
2023-04-19T14:18:29.569Z,102226.47
2023-04-19T14:20:58.188Z,102228.25
2023-04-19T14:23:28.727Z,102229.63
2023-04-19T14:25:57.291Z,102223.06
2023-04-19T14:28:26.008Z,102226.69
2023-04-19T14:30:54.844Z,102236.06
2023-04-19T14:33:23.459Z,102233.94
2023-04-19T14:35:51.794Z,102234.63
2023-04-19T14:38:20.321Z,102222.25
2023-04-19T14:40:50.149Z,102234.63
2023-04-19T14:43:18.760Z,102230.44
2023-04-19T14:45:50.205Z,102226.69
2023-04-19T14:48:21.397Z,102218.66
2023-04-19T14:50:51.846Z,102224.72
2023-04-19T14:53:20.364Z,102220.28
2023-04-19T14:55:50.961Z,102205.09
2023-04-19T14:58:19.480Z,102206.13
2023-04-19T15:00:48.126Z,102209.13
2023-04-19T15:03:17.800Z,102211.44
2023-04-19T15:05:46.451Z,102211.63
2023-04-19T15:08:29.144Z,102205.78
2023-04-19T15:11:00.382Z,102211.31
2023-04-19T15:13:30.060Z,102218.38
2023-04-19T15:16:00.548Z,102213.53
2023-04-19T15:18:30.578Z,102208.47
2023-04-19T15:20:58.916Z,102211.84
2023-04-19T15:23:27.571Z,102208.19
2023-04-19T15:25:56.674Z,102212.41
2023-04-19T15:28:27.087Z,102205.41
2023-04-19T15:31:00.481Z,102212.38
2023-04-19T15:33:29.803Z,102200.56
2023-04-19T15:35:59.279Z,102202.06
2023-04-19T15:38:29.804Z,102204.03
2023-04-19T15:41:00.193Z,102209.47
2023-04-19T15:43:30.152Z,102206.88
2023-04-19T15:45:58.583Z,102211.81
2023-04-19T15:48:27.540Z,102212.50
2023-04-19T15:50:56.206Z,102213.19
2023-04-19T15:53:24.980Z,102212.72
2023-04-19T15:55:55.796Z,102210.56
2023-04-19T15:58:25.288Z,102206.09
2023-04-19T16:00:55.230Z,102193.56
2023-04-19T16:03:24.107Z,102196.81
2023-04-19T16:05:52.974Z,102188.97
2023-04-19T16:08:21.526Z,102187.56
2023-04-19T16:10:51.067Z,102179.44
2023-04-19T16:13:19.621Z,102181.25
2023-04-19T16:15:48.389Z,102173.56
2023-04-19T16:18:18.432Z,102176.88
2023-04-19T16:20:47.056Z,102170.25
2023-04-19T16:23:15.935Z,102180.75
2023-04-19T16:25:44.257Z,102172.69
2023-04-19T16:28:12.922Z,102170.53
2023-04-19T16:30:41.418Z,102167.78
2023-04-19T16:33:10.162Z,102164.38
2023-04-19T16:35:40.449Z,102164.84
2023-04-19T16:38:09.071Z,102171.09
2023-04-19T16:40:37.842Z,102167.69
2023-04-19T16:43:06.772Z,102170.72
2023-04-19T16:45:35.657Z,102170.78
2023-04-19T16:48:04.366Z,102173.50
2023-04-19T16:50:33.314Z,102168.84
2023-04-19T16:53:03.290Z,102168.84
2023-04-19T16:55:31.593Z,102176.53
2023-04-19T16:58:02.314Z,102168.09
2023-04-19T17:00:30.946Z,102175.19
2023-04-19T17:02:59.468Z,102162.31
2023-04-19T17:05:28.146Z,102172.53
2023-04-19T17:07:56.961Z,102177.31
2023-04-19T17:10:28.231Z,102172.53
2023-04-19T17:12:56.842Z,102173.50
2023-04-19T17:15:26.535Z,102170.25
2023-04-19T17:17:54.961Z,102167.34
2023-04-19T17:20:23.600Z,102160.00
2023-04-19T17:22:53.160Z,102173.16
2023-04-19T17:25:22.406Z,102171.44
2023-04-19T17:27:52.968Z,102153.22
2023-04-19T17:30:21.358Z,102156.50
2023-04-19T17:32:50.051Z,102150.50
2023-04-19T17:35:18.569Z,102147.06
2023-04-19T17:37:50.856Z,102150.00
2023-04-19T17:40:20.815Z,102141.56
2023-04-19T17:42:49.686Z,102144.22
2023-04-19T17:45:19.697Z,102119.88
2023-04-19T17:47:49.564Z,102128.25
2023-04-19T17:50:19.192Z,102128.50
2023-04-19T17:52:48.916Z,102120.88
2023-04-19T17:55:17.528Z,102125.72
2023-04-19T17:57:47.537Z,102111.38
2023-04-19T18:00:17.095Z,102094.75
2023-04-19T18:02:47.175Z,102091.97
2023-04-19T18:05:16.587Z,102072.50
2023-04-19T18:07:45.232Z,102070.66
2023-04-19T18:10:13.729Z,102071.03
2023-04-19T18:12:42.941Z,102068.97
2023-04-19T18:15:12.651Z,102070.16
2023-04-19T18:17:41.343Z,102059.56
2023-04-19T18:20:13.766Z,102060.34
2023-04-19T18:22:42.553Z,102075.38
2023-04-19T18:25:11.682Z,102090.53
2023-04-19T18:27:40.662Z,102089.78
2023-04-19T18:30:10.239Z,102087.78
2023-04-19T18:32:38.979Z,102091.53
2023-04-19T18:35:12.059Z,102082.88
2023-04-19T18:37:42.325Z,102085.28
2023-04-19T18:40:12.520Z,102090.50
2023-04-19T18:42:41.382Z,102102.41
2023-04-19T18:45:11.588Z,102085.28
2023-04-19T18:47:40.049Z,102092.66
2023-04-19T18:50:12.117Z,102091.13
2023-04-19T18:52:40.799Z,102082.47
2023-04-19T18:55:11.906Z,102091.03
2023-04-19T18:57:41.548Z,102083.56
2023-04-19T19:00:11.392Z,102089.03
2023-04-19T19:02:43.828Z,102090.06
2023-04-19T19:05:16.382Z,102091.09
2023-04-19T19:07:46.927Z,102088.72
2023-04-19T19:10:21.006Z,102097.34
2023-04-19T19:12:50.995Z,102089.41
2023-04-19T19:15:19.607Z,102081.34
2023-04-19T19:17:50.478Z,102074.09
2023-04-19T19:20:21.503Z,102086.28
2023-04-19T19:22:53.080Z,102079.56
2023-04-19T19:25:21.933Z,102074.06
2023-04-19T19:30:29.632Z,102084.81
2023-04-19T19:32:58.117Z,102077.28
2023-04-19T19:35:28.216Z,102074.47
2023-04-19T19:37:56.932Z,102066.66
2023-04-19T19:40:25.625Z,102074.59
2023-04-19T19:42:56.279Z,102073.16
2023-04-19T19:45:28.683Z,102074.84
2023-04-19T19:48:00.030Z,102081.34
2023-04-19T19:53:02.503Z,102106.91
2023-04-19T19:55:31.501Z,102100.19
2023-04-19T20:00:44.756Z,102084.56
2023-04-19T20:03:14.091Z,102092.59
2023-04-19T20:05:44.458Z,102090.91
2023-04-19T20:08:15.281Z,102092.59
2023-04-19T20:10:46.819Z,102090.13
2023-04-19T20:13:15.310Z,102096.25
2023-04-19T20:15:45.892Z,102096.44
2023-04-19T20:18:14.767Z,102105.97
2023-04-19T20:20:52.008Z,102106.47
2023-04-19T20:23:22.421Z,102116.13
2023-04-19T20:25:51.973Z,102109.31
2023-04-19T20:28:21.071Z,102115.34
2023-04-19T20:30:49.712Z,102119.88
2023-04-19T20:33:18.369Z,102103.16
2023-04-19T20:35:46.662Z,102108.63
2023-04-19T20:38:16.586Z,102108.63
2023-04-19T20:40:45.116Z,102110.41
2023-04-19T20:43:16.222Z,102118.34
2023-04-19T20:45:44.972Z,102113.22
2023-04-19T20:48:20.747Z,102124.78
2023-04-19T20:50:50.618Z,102117.81
2023-04-19T20:53:21.318Z,102113.22
2023-04-19T20:55:49.878Z,102120.56
2023-04-19T20:58:18.492Z,102126.53
2023-04-19T21:00:47.089Z,102118.91
2023-04-19T21:03:16.309Z,102126.84
2023-04-19T21:05:44.946Z,102120.66
2023-04-19T21:08:15.496Z,102135.56
2023-04-19T21:10:46.679Z,102125.94
2023-04-19T21:13:15.274Z,102139.16
2023-04-19T21:15:44.102Z,102128.63
2023-04-19T21:18:12.544Z,102129.81
2023-04-19T21:20:41.133Z,102130.75
2023-04-19T21:23:10.658Z,102134.25
2023-04-19T21:25:39.212Z,102129.22
2023-04-19T21:28:11.808Z,102131.00
2023-04-19T21:30:43.675Z,102137.63
2023-04-19T21:33:12.533Z,102129.97
2023-04-19T21:35:41.106Z,102127.38
2023-04-19T21:38:09.626Z,102130.09
2023-04-19T21:40:39.310Z,102134.53
2023-04-19T21:43:09.640Z,102140.81
2023-04-19T21:45:38.267Z,102138.28
2023-04-19T21:48:07.590Z,102148.75
2023-04-19T21:50:36.239Z,102141.94
2023-04-19T21:53:04.779Z,102143.47
2023-04-19T21:55:34.682Z,102135.78
2023-04-19T21:58:04.153Z,102142.09
2023-04-19T22:00:33.995Z,102136.81
2023-04-19T22:03:02.672Z,102130.19
2023-04-19T22:05:31.240Z,102131.19
2023-04-19T22:08:01.418Z,102129.34
2023-04-19T22:10:31.817Z,102132.31
2023-04-19T22:13:00.578Z,102133.31
2023-04-19T22:15:28.878Z,102131.06
2023-04-19T22:17:59.141Z,102134.63
2023-04-19T22:20:28.171Z,102138.34
2023-04-19T22:22:56.930Z,102137.66
2023-04-19T22:25:25.727Z,102142.94
2023-04-19T22:27:54.354Z,102153.50
2023-04-19T22:30:22.981Z,102150.00
2023-04-19T22:32:52.409Z,102142.94
2023-04-19T22:35:23.014Z,102147.59
2023-04-19T22:37:51.595Z,102144.28
2023-04-19T22:40:20.273Z,102149.38
2023-04-19T22:42:48.799Z,102157.06
2023-04-19T22:45:17.517Z,102148.69
2023-04-19T22:47:46.217Z,102158.47
2023-04-19T22:50:15.850Z,102150.22
2023-04-19T22:52:46.033Z,102153.28
2023-04-19T22:55:14.307Z,102159.78
2023-04-19T22:57:43.517Z,102152.72
2023-04-19T23:00:12.690Z,102158.38
2023-04-19T23:02:41.391Z,102164.16
2023-04-19T23:05:11.672Z,102158.34
2023-04-19T23:07:43.473Z,102156.66
2023-04-19T23:10:15.184Z,102160.41
2023-04-19T23:12:43.434Z,102148.38
2023-04-19T23:15:14.018Z,102143.75
2023-04-19T23:17:42.624Z,102143.97
2023-04-19T23:20:12.498Z,102137.00
2023-04-19T23:22:41.244Z,102153.53
2023-04-19T23:25:11.095Z,102155.66
2023-04-19T23:27:41.172Z,102155.91
2023-04-19T23:30:10.614Z,102160.41
2023-04-19T23:32:39.179Z,102162.44
2023-04-19T23:35:08.354Z,102160.66
2023-04-19T23:37:37.035Z,102161.53
2023-04-19T23:40:08.548Z,102155.69
2023-04-19T23:42:37.996Z,102164.53
2023-04-19T23:45:09.404Z,102146.84
2023-04-19T23:47:37.960Z,102153.91
2023-04-19T23:50:08.982Z,102158.63
2023-04-19T23:52:37.378Z,102139.47
2023-04-19T23:55:07.170Z,102134.19
2023-04-19T23:57:37.162Z,102135.03
